sensor_id;sensor_type;location;lat;lon;timestamp;P1;durP1;ratioP1;P2;durP2;ratioP2
9761;SDS011;4920;49.594;11.022;2023-04-28T00:00:59;8.77;;;4.80;;
9761;SDS011;4920;49.594;11.022;2023-04-28T00:03:28;8.77;;;4.80;;
9761;SDS011;4920;49.594;11.022;2023-04-28T00:05:57;6.07;;;4.70;;
9761;SDS011;4920;49.594;11.022;2023-04-28T00:08:26;8.03;;;4.80;;
9761;SDS011;4920;49.594;11.022;2023-04-28T00:10:55;9.37;;;4.97;;
9761;SDS011;4920;49.594;11.022;2023-04-28T00:13:24;9.17;;;5.00;;
9761;SDS011;4920;49.594;11.022;2023-04-28T00:15:54;8.57;;;4.60;;
9761;SDS011;4920;49.594;11.022;2023-04-28T00:18:22;7.87;;;4.63;;
9761;SDS011;4920;49.594;11.022;2023-04-28T00:20:51;5.37;;;4.37;;
9761;SDS011;4920;49.594;11.022;2023-04-28T00:23:20;6.97;;;4.70;;
9761;SDS011;4920;49.594;11.022;2023-04-28T00:25:50;7.03;;;4.13;;
9761;SDS011;4920;49.594;11.022;2023-04-28T00:28:19;9.47;;;4.80;;
9761;SDS011;4920;49.594;11.022;2023-04-28T00:31:01;7.17;;;4.50;;
9761;SDS011;4920;49.594;11.022;2023-04-28T00:33:37;7.23;;;4.60;;
9761;SDS011;4920;49.594;11.022;2023-04-28T00:36:06;7.33;;;4.67;;
9761;SDS011;4920;49.594;11.022;2023-04-28T00:38:35;7.73;;;4.77;;
9761;SDS011;4920;49.594;11.022;2023-04-28T00:41:04;7.87;;;4.90;;
9761;SDS011;4920;49.594;11.022;2023-04-28T00:43:42;7.00;;;4.30;;
9761;SDS011;4920;49.594;11.022;2023-04-28T00:46:16;8.00;;;4.40;;
9761;SDS011;4920;49.594;11.022;2023-04-28T00:48:49;7.27;;;4.63;;
9761;SDS011;4920;49.594;11.022;2023-04-28T00:51:18;6.83;;;5.03;;
9761;SDS011;4920;49.594;11.022;2023-04-28T00:53:47;5.93;;;4.50;;
9761;SDS011;4920;49.594;11.022;2023-04-28T00:56:15;6.30;;;4.43;;
9761;SDS011;4920;49.594;11.022;2023-04-28T00:58:44;9.90;;;4.80;;
9761;SDS011;4920;49.594;11.022;2023-04-28T01:01:14;6.07;;;4.97;;
9761;SDS011;4920;49.594;11.022;2023-04-28T01:03:43;6.73;;;4.70;;
9761;SDS011;4920;49.594;11.022;2023-04-28T01:06:13;7.27;;;4.70;;
9761;SDS011;4920;49.594;11.022;2023-04-28T01:08:46;11.43;;;5.03;;
9761;SDS011;4920;49.594;11.022;2023-04-28T01:11:16;7.87;;;4.93;;
9761;SDS011;4920;49.594;11.022;2023-04-28T01:14:05;6.20;;;4.60;;
9761;SDS011;4920;49.594;11.022;2023-04-28T01:16:38;8.10;;;5.07;;
9761;SDS011;4920;49.594;11.022;2023-04-28T01:19:10;7.47;;;4.90;;
9761;SDS011;4920;49.594;11.022;2023-04-28T01:21:44;8.13;;;4.70;;
9761;SDS011;4920;49.594;11.022;2023-04-28T01:24:21;6.27;;;5.00;;
9761;SDS011;4920;49.594;11.022;2023-04-28T01:26:50;6.40;;;4.70;;
9761;SDS011;4920;49.594;11.022;2023-04-28T01:29:21;7.97;;;4.93;;
9761;SDS011;4920;49.594;11.022;2023-04-28T01:31:50;5.87;;;4.70;;
9761;SDS011;4920;49.594;11.022;2023-04-28T01:34:19;8.30;;;4.70;;
9761;SDS011;4920;49.594;11.022;2023-04-28T01:36:47;9.13;;;5.00;;
9761;SDS011;4920;49.594;11.022;2023-04-28T01:39:16;6.63;;;4.67;;
9761;SDS011;4920;49.594;11.022;2023-04-28T01:41:46;6.07;;;4.67;;
9761;SDS011;4920;49.594;11.022;2023-04-28T01:44:15;5.70;;;4.63;;
9761;SDS011;4920;49.594;11.022;2023-04-28T01:46:47;12.47;;;5.20;;
9761;SDS011;4920;49.594;11.022;2023-04-28T01:49:16;7.03;;;4.93;;
9761;SDS011;4920;49.594;11.022;2023-04-28T01:51:44;11.30;;;5.33;;
9761;SDS011;4920;49.594;11.022;2023-04-28T01:54:13;7.87;;;5.10;;
9761;SDS011;4920;49.594;11.022;2023-04-28T01:56:42;9.73;;;5.17;;
9761;SDS011;4920;49.594;11.022;2023-04-28T01:59:15;9.17;;;5.30;;
9761;SDS011;4920;49.594;11.022;2023-04-28T02:01:44;7.57;;;5.13;;
9761;SDS011;4920;49.594;11.022;2023-04-28T02:04:13;6.27;;;5.23;;
9761;SDS011;4920;49.594;11.022;2023-04-28T02:06:42;7.70;;;5.13;;
9761;SDS011;4920;49.594;11.022;2023-04-28T02:09:11;8.93;;;5.43;;
9761;SDS011;4920;49.594;11.022;2023-04-28T02:11:40;7.80;;;5.30;;
9761;SDS011;4920;49.594;11.022;2023-04-28T02:14:09;10.73;;;5.17;;
9761;SDS011;4920;49.594;11.022;2023-04-28T02:16:39;7.87;;;5.17;;
9761;SDS011;4920;49.594;11.022;2023-04-28T02:19:07;8.83;;;5.50;;
9761;SDS011;4920;49.594;11.022;2023-04-28T02:21:36;8.23;;;4.97;;
9761;SDS011;4920;49.594;11.022;2023-04-28T02:24:06;10.63;;;5.53;;
9761;SDS011;4920;49.594;11.022;2023-04-28T02:26:35;7.90;;;5.23;;
9761;SDS011;4920;49.594;11.022;2023-04-28T02:29:03;9.00;;;5.33;;
9761;SDS011;4920;49.594;11.022;2023-04-28T02:31:33;11.03;;;5.40;;
9761;SDS011;4920;49.594;11.022;2023-04-28T02:34:03;7.33;;;4.97;;
9761;SDS011;4920;49.594;11.022;2023-04-28T02:36:32;8.33;;;5.10;;
9761;SDS011;4920;49.594;11.022;2023-04-28T02:39:01;8.17;;;5.17;;
9761;SDS011;4920;49.594;11.022;2023-04-28T02:41:30;8.53;;;5.20;;
9761;SDS011;4920;49.594;11.022;2023-04-28T02:44:00;7.60;;;5.57;;
9761;SDS011;4920;49.594;11.022;2023-04-28T02:46:29;8.50;;;5.30;;
9761;SDS011;4920;49.594;11.022;2023-04-28T02:48:58;6.73;;;5.40;;
9761;SDS011;4920;49.594;11.022;2023-04-28T02:51:29;9.53;;;5.17;;
9761;SDS011;4920;49.594;11.022;2023-04-28T02:53:57;8.17;;;5.67;;
9761;SDS011;4920;49.594;11.022;2023-04-28T02:56:26;7.90;;;5.57;;
9761;SDS011;4920;49.594;11.022;2023-04-28T02:58:57;8.80;;;5.33;;
9761;SDS011;4920;49.594;11.022;2023-04-28T03:01:26;7.13;;;5.40;;
9761;SDS011;4920;49.594;11.022;2023-04-28T03:03:54;7.33;;;5.20;;
9761;SDS011;4920;49.594;11.022;2023-04-28T03:06:23;8.73;;;5.30;;
9761;SDS011;4920;49.594;11.022;2023-04-28T03:08:54;9.67;;;5.13;;
9761;SDS011;4920;49.594;11.022;2023-04-28T03:11:22;9.43;;;6.10;;
9761;SDS011;4920;49.594;11.022;2023-04-28T03:13:52;9.30;;;5.70;;
9761;SDS011;4920;49.594;11.022;2023-04-28T03:16:22;6.27;;;5.13;;
9761;SDS011;4920;49.594;11.022;2023-04-28T03:18:51;6.43;;;5.13;;
9761;SDS011;4920;49.594;11.022;2023-04-28T03:21:20;8.33;;;5.00;;
9761;SDS011;4920;49.594;11.022;2023-04-28T03:23:49;7.00;;;4.97;;
9761;SDS011;4920;49.594;11.022;2023-04-28T03:26:19;6.53;;;4.70;;
9761;SDS011;4920;49.594;11.022;2023-04-28T03:28:49;6.17;;;5.00;;
9761;SDS011;4920;49.594;11.022;2023-04-28T03:31:18;9.37;;;5.10;;
9761;SDS011;4920;49.594;11.022;2023-04-28T03:33:47;8.80;;;5.23;;
9761;SDS011;4920;49.594;11.022;2023-04-28T03:36:16;6.70;;;5.40;;
9761;SDS011;4920;49.594;11.022;2023-04-28T03:38:45;7.17;;;5.00;;
9761;SDS011;4920;49.594;11.022;2023-04-28T03:41:14;8.80;;;4.97;;
9761;SDS011;4920;49.594;11.022;2023-04-28T03:43:44;7.83;;;5.00;;
9761;SDS011;4920;49.594;11.022;2023-04-28T03:46:34;9.23;;;5.20;;
9761;SDS011;4920;49.594;11.022;2023-04-28T03:49:03;8.90;;;5.50;;
9761;SDS011;4920;49.594;11.022;2023-04-28T03:51:32;8.77;;;5.50;;
9761;SDS011;4920;49.594;11.022;2023-04-28T03:54:00;5.63;;;5.03;;
9761;SDS011;4920;49.594;11.022;2023-04-28T03:56:30;9.23;;;5.17;;
9761;SDS011;4920;49.594;11.022;2023-04-28T03:59:01;6.57;;;5.10;;
9761;SDS011;4920;49.594;11.022;2023-04-28T04:01:30;8.73;;;5.30;;
9761;SDS011;4920;49.594;11.022;2023-04-28T04:04:00;9.57;;;5.60;;
9761;SDS011;4920;49.594;11.022;2023-04-28T04:06:29;6.07;;;5.10;;
9761;SDS011;4920;49.594;11.022;2023-04-28T04:08:58;7.27;;;5.30;;
9761;SDS011;4920;49.594;11.022;2023-04-28T04:11:27;9.33;;;5.20;;
9761;SDS011;4920;49.594;11.022;2023-04-28T04:13:55;7.50;;;5.13;;
9761;SDS011;4920;49.594;11.022;2023-04-28T04:16:25;6.93;;;4.70;;
9761;SDS011;4920;49.594;11.022;2023-04-28T04:18:55;7.23;;;5.20;;
9761;SDS011;4920;49.594;11.022;2023-04-28T04:21:31;10.93;;;5.77;;
9761;SDS011;4920;49.594;11.022;2023-04-28T04:24:00;9.60;;;5.70;;
9761;SDS011;4920;49.594;11.022;2023-04-28T04:26:34;7.80;;;5.57;;
9761;SDS011;4920;49.594;11.022;2023-04-28T04:29:16;9.67;;;5.90;;
9761;SDS011;4920;49.594;11.022;2023-04-28T04:31:47;9.17;;;5.63;;
9761;SDS011;4920;49.594;11.022;2023-04-28T04:34:16;7.77;;;5.23;;
9761;SDS011;4920;49.594;11.022;2023-04-28T04:36:45;9.77;;;5.53;;
9761;SDS011;4920;49.594;11.022;2023-04-28T04:39:14;8.60;;;5.70;;
9761;SDS011;4920;49.594;11.022;2023-04-28T04:41:42;9.53;;;6.00;;
9761;SDS011;4920;49.594;11.022;2023-04-28T04:44:36;10.67;;;5.63;;
9761;SDS011;4920;49.594;11.022;2023-04-28T04:47:11;6.00;;;5.40;;
9761;SDS011;4920;49.594;11.022;2023-04-28T04:49:40;7.47;;;5.50;;
9761;SDS011;4920;49.594;11.022;2023-04-28T04:52:09;8.80;;;5.07;;
9761;SDS011;4920;49.594;11.022;2023-04-28T04:54:37;12.53;;;5.67;;
9761;SDS011;4920;49.594;11.022;2023-04-28T04:57:09;6.70;;;5.50;;
9761;SDS011;4920;49.594;11.022;2023-04-28T04:59:56;11.10;;;6.30;;
9761;SDS011;4920;49.594;11.022;2023-04-28T05:02:31;7.10;;;5.40;;
9761;SDS011;4920;49.594;11.022;2023-04-28T05:05:01;9.53;;;5.90;;
9761;SDS011;4920;49.594;11.022;2023-04-28T05:07:51;7.37;;;5.60;;
9761;SDS011;4920;49.594;11.022;2023-04-28T05:10:20;8.83;;;5.50;;
9761;SDS011;4920;49.594;11.022;2023-04-28T05:12:49;6.43;;;5.33;;
9761;SDS011;4920;49.594;11.022;2023-04-28T05:15:17;10.90;;;5.40;;
9761;SDS011;4920;49.594;11.022;2023-04-28T05:18:07;9.23;;;4.97;;
9761;SDS011;4920;49.594;11.022;2023-04-28T05:20:37;6.47;;;5.40;;
9761;SDS011;4920;49.594;11.022;2023-04-28T05:26:00;8.57;;;5.77;;
9761;SDS011;4920;49.594;11.022;2023-04-28T05:28:30;9.37;;;5.70;;
9761;SDS011;4920;49.594;11.022;2023-04-28T05:31:00;10.13;;;6.10;;
9761;SDS011;4920;49.594;11.022;2023-04-28T05:33:31;10.53;;;6.20;;
9761;SDS011;4920;49.594;11.022;2023-04-28T05:36:00;10.27;;;6.43;;
9761;SDS011;4920;49.594;11.022;2023-04-28T05:38:29;6.57;;;5.27;;
9761;SDS011;4920;49.594;11.022;2023-04-28T05:40:59;10.60;;;5.83;;
9761;SDS011;4920;49.594;11.022;2023-04-28T05:43:28;12.37;;;6.00;;
9761;SDS011;4920;49.594;11.022;2023-04-28T05:45:57;8.37;;;5.90;;
9761;SDS011;4920;49.594;11.022;2023-04-28T05:48:26;8.20;;;5.83;;
9761;SDS011;4920;49.594;11.022;2023-04-28T05:50:56;6.90;;;5.40;;
9761;SDS011;4920;49.594;11.022;2023-04-28T05:53:25;7.97;;;5.70;;
9761;SDS011;4920;49.594;11.022;2023-04-28T05:55:54;8.90;;;5.87;;
9761;SDS011;4920;49.594;11.022;2023-04-28T05:58:23;8.83;;;5.40;;
9761;SDS011;4920;49.594;11.022;2023-04-28T06:00:52;7.60;;;5.83;;
9761;SDS011;4920;49.594;11.022;2023-04-28T06:03:21;9.13;;;5.60;;
9761;SDS011;4920;49.594;11.022;2023-04-28T06:05:50;8.93;;;5.70;;
9761;SDS011;4920;49.594;11.022;2023-04-28T06:08:21;12.33;;;6.43;;
9761;SDS011;4920;49.594;11.022;2023-04-28T06:10:50;9.40;;;5.93;;
9761;SDS011;4920;49.594;11.022;2023-04-28T06:13:19;11.73;;;5.70;;
9761;SDS011;4920;49.594;11.022;2023-04-28T06:15:48;9.10;;;5.33;;
9761;SDS011;4920;49.594;11.022;2023-04-28T06:18:16;8.63;;;5.40;;
9761;SDS011;4920;49.594;11.022;2023-04-28T06:20:45;8.67;;;6.00;;
9761;SDS011;4920;49.594;11.022;2023-04-28T06:23:14;7.93;;;5.70;;
9761;SDS011;4920;49.594;11.022;2023-04-28T06:25:46;10.27;;;6.10;;
9761;SDS011;4920;49.594;11.022;2023-04-28T06:28:15;9.20;;;6.00;;
9761;SDS011;4920;49.594;11.022;2023-04-28T06:30:46;7.57;;;5.70;;
9761;SDS011;4920;49.594;11.022;2023-04-28T06:33:15;9.63;;;5.47;;
9761;SDS011;4920;49.594;11.022;2023-04-28T06:35:44;8.00;;;5.67;;
9761;SDS011;4920;49.594;11.022;2023-04-28T06:38:14;9.10;;;5.60;;
9761;SDS011;4920;49.594;11.022;2023-04-28T06:40:43;8.13;;;5.70;;
9761;SDS011;4920;49.594;11.022;2023-04-28T06:43:16;8.70;;;5.90;;
9761;SDS011;4920;49.594;11.022;2023-04-28T06:46:00;11.93;;;6.00;;
9761;SDS011;4920;49.594;11.022;2023-04-28T06:48:29;8.07;;;5.67;;
9761;SDS011;4920;49.594;11.022;2023-04-28T06:51:01;10.07;;;5.80;;
9761;SDS011;4920;49.594;11.022;2023-04-28T06:53:29;9.23;;;6.00;;
9761;SDS011;4920;49.594;11.022;2023-04-28T06:55:59;9.03;;;5.90;;
9761;SDS011;4920;49.594;11.022;2023-04-28T06:58:30;10.43;;;5.80;;
9761;SDS011;4920;49.594;11.022;2023-04-28T07:00:58;6.88;;;5.60;;
9761;SDS011;4920;49.594;11.022;2023-04-28T07:03:29;11.90;;;6.10;;
9761;SDS011;4920;49.594;11.022;2023-04-28T07:06:02;6.50;;;5.80;;
9761;SDS011;4920;49.594;11.022;2023-04-28T07:08:32;10.77;;;6.33;;
9761;SDS011;4920;49.594;11.022;2023-04-28T07:11:02;10.30;;;6.53;;
9761;SDS011;4920;49.594;11.022;2023-04-28T07:13:33;7.57;;;6.13;;
9761;SDS011;4920;49.594;11.022;2023-04-28T07:16:02;9.67;;;5.93;;
9761;SDS011;4920;49.594;11.022;2023-04-28T07:18:31;10.57;;;6.60;;
9761;SDS011;4920;49.594;11.022;2023-04-28T07:21:00;7.70;;;6.23;;
9761;SDS011;4920;49.594;11.022;2023-04-28T07:23:31;6.43;;;5.80;;
9761;SDS011;4920;49.594;11.022;2023-04-28T07:26:00;9.83;;;6.47;;
9761;SDS011;4920;49.594;11.022;2023-04-28T07:28:28;13.40;;;7.13;;
9761;SDS011;4920;49.594;11.022;2023-04-28T07:30:59;9.43;;;6.73;;
9761;SDS011;4920;49.594;11.022;2023-04-28T07:33:27;10.87;;;7.53;;
9761;SDS011;4920;49.594;11.022;2023-04-28T07:35:56;10.77;;;7.37;;
9761;SDS011;4920;49.594;11.022;2023-04-28T07:38:25;13.07;;;6.93;;
9761;SDS011;4920;49.594;11.022;2023-04-28T07:40:54;9.13;;;7.43;;
9761;SDS011;4920;49.594;11.022;2023-04-28T07:43:24;12.17;;;8.23;;
9761;SDS011;4920;49.594;11.022;2023-04-28T07:45:52;9.47;;;8.13;;
9761;SDS011;4920;49.594;11.022;2023-04-28T07:48:23;11.77;;;7.33;;
9761;SDS011;4920;49.594;11.022;2023-04-28T07:50:53;10.37;;;7.63;;
9761;SDS011;4920;49.594;11.022;2023-04-28T07:53:21;12.10;;;8.80;;
9761;SDS011;4920;49.594;11.022;2023-04-28T07:55:50;10.57;;;8.60;;
9761;SDS011;4920;49.594;11.022;2023-04-28T07:58:19;11.97;;;8.87;;
9761;SDS011;4920;49.594;11.022;2023-04-28T08:00:47;13.50;;;9.03;;
9761;SDS011;4920;49.594;11.022;2023-04-28T08:03:16;11.87;;;9.53;;
9761;SDS011;4920;49.594;11.022;2023-04-28T08:05:46;12.90;;;9.17;;
9761;SDS011;4920;49.594;11.022;2023-04-28T08:08:15;13.57;;;9.37;;
9761;SDS011;4920;49.594;11.022;2023-04-28T08:10:44;15.10;;;9.00;;
9761;SDS011;4920;49.594;11.022;2023-04-28T08:13:31;12.33;;;9.17;;
9761;SDS011;4920;49.594;11.022;2023-04-28T08:16:00;15.20;;;9.57;;
9761;SDS011;4920;49.594;11.022;2023-04-28T08:18:28;12.33;;;9.33;;
9761;SDS011;4920;49.594;11.022;2023-04-28T08:20:59;11.07;;;9.13;;
9761;SDS011;4920;49.594;11.022;2023-04-28T08:23:28;11.03;;;8.67;;
9761;SDS011;4920;49.594;11.022;2023-04-28T08:25:57;12.63;;;8.70;;
9761;SDS011;4920;49.594;11.022;2023-04-28T08:28:26;12.93;;;8.90;;
9761;SDS011;4920;49.594;11.022;2023-04-28T08:30:55;12.83;;;8.47;;
9761;SDS011;4920;49.594;11.022;2023-04-28T08:33:24;13.33;;;9.03;;
9761;SDS011;4920;49.594;11.022;2023-04-28T08:35:53;11.33;;;8.77;;
9761;SDS011;4920;49.594;11.022;2023-04-28T08:38:23;12.50;;;8.60;;
9761;SDS011;4920;49.594;11.022;2023-04-28T08:40:53;13.77;;;8.57;;
9761;SDS011;4920;49.594;11.022;2023-04-28T08:43:22;11.33;;;8.80;;
9761;SDS011;4920;49.594;11.022;2023-04-28T08:45:52;10.73;;;8.10;;
9761;SDS011;4920;49.594;11.022;2023-04-28T08:48:21;11.07;;;8.00;;
9761;SDS011;4920;49.594;11.022;2023-04-28T08:50:50;10.17;;;8.43;;
9761;SDS011;4920;49.594;11.022;2023-04-28T08:53:21;10.90;;;7.90;;
9761;SDS011;4920;49.594;11.022;2023-04-28T08:55:55;11.53;;;7.57;;
9761;SDS011;4920;49.594;11.022;2023-04-28T08:58:25;10.17;;;8.07;;
9761;SDS011;4920;49.594;11.022;2023-04-28T09:00:55;11.07;;;8.33;;
9761;SDS011;4920;49.594;11.022;2023-04-28T09:03:28;12.30;;;8.47;;
9761;SDS011;4920;49.594;11.022;2023-04-28T09:05:57;11.37;;;8.00;;
9761;SDS011;4920;49.594;11.022;2023-04-28T09:08:26;12.57;;;8.20;;
9761;SDS011;4920;49.594;11.022;2023-04-28T09:11:06;11.23;;;8.53;;
9761;SDS011;4920;49.594;11.022;2023-04-28T09:13:36;12.10;;;8.00;;
9761;SDS011;4920;49.594;11.022;2023-04-28T09:16:05;10.80;;;7.90;;
9761;SDS011;4920;49.594;11.022;2023-04-28T09:18:34;9.60;;;8.30;;
9761;SDS011;4920;49.594;11.022;2023-04-28T09:21:07;12.17;;;7.87;;
9761;SDS011;4920;49.594;11.022;2023-04-28T09:23:45;14.30;;;9.40;;
9761;SDS011;4920;49.594;11.022;2023-04-28T09:26:17;10.90;;;8.80;;
9761;SDS011;4920;49.594;11.022;2023-04-28T09:28:46;12.43;;;8.40;;
9761;SDS011;4920;49.594;11.022;2023-04-28T09:31:23;14.47;;;9.07;;
9761;SDS011;4920;49.594;11.022;2023-04-28T09:33:57;12.00;;;8.90;;
9761;SDS011;4920;49.594;11.022;2023-04-28T09:36:26;12.27;;;8.60;;
9761;SDS011;4920;49.594;11.022;2023-04-28T09:38:56;11.10;;;8.17;;
9761;SDS011;4920;49.594;11.022;2023-04-28T09:41:37;14.93;;;8.50;;
9761;SDS011;4920;49.594;11.022;2023-04-28T09:44:10;9.53;;;8.17;;
9761;SDS011;4920;49.594;11.022;2023-04-28T09:46:41;11.83;;;7.30;;
9761;SDS011;4920;49.594;11.022;2023-04-28T09:49:11;10.52;;;8.23;;
9761;SDS011;4920;49.594;11.022;2023-04-28T09:51:43;11.60;;;7.93;;
9761;SDS011;4920;49.594;11.022;2023-04-28T09:54:11;10.40;;;7.57;;
9761;SDS011;4920;49.594;11.022;2023-04-28T09:56:42;9.70;;;7.72;;
9761;SDS011;4920;49.594;11.022;2023-04-28T09:59:12;10.25;;;7.53;;
9761;SDS011;4920;49.594;11.022;2023-04-28T10:01:41;10.13;;;7.07;;
9761;SDS011;4920;49.594;11.022;2023-04-28T10:04:12;9.65;;;7.07;;
9761;SDS011;4920;49.594;11.022;2023-04-28T10:06:41;11.20;;;7.15;;
9761;SDS011;4920;49.594;11.022;2023-04-28T10:09:11;10.10;;;6.82;;
9761;SDS011;4920;49.594;11.022;2023-04-28T10:11:42;9.77;;;7.43;;
9761;SDS011;4920;49.594;11.022;2023-04-28T10:14:10;10.38;;;6.88;;
9761;SDS011;4920;49.594;11.022;2023-04-28T10:16:40;8.35;;;7.00;;
9761;SDS011;4920;49.594;11.022;2023-04-28T10:19:09;8.57;;;6.82;;
9761;SDS011;4920;49.594;11.022;2023-04-28T10:21:40;9.20;;;6.85;;
9761;SDS011;4920;49.594;11.022;2023-04-28T10:24:15;9.18;;;7.35;;
9761;SDS011;4920;49.594;11.022;2023-04-28T10:27:04;12.57;;;7.38;;
9761;SDS011;4920;49.594;11.022;2023-04-28T10:29:35;12.52;;;8.45;;
9761;SDS011;4920;49.594;11.022;2023-04-28T10:32:14;9.88;;;7.47;;
9761;SDS011;4920;49.594;11.022;2023-04-28T10:38:03;9.73;;;8.13;;
9761;SDS011;4920;49.594;11.022;2023-04-28T10:40:34;9.25;;;7.40;;
9761;SDS011;4920;49.594;11.022;2023-04-28T10:43:05;13.27;;;8.70;;
9761;SDS011;4920;49.594;11.022;2023-04-28T10:45:57;9.68;;;8.20;;
9761;SDS011;4920;49.594;11.022;2023-04-28T10:48:53;11.68;;;8.35;;
9761;SDS011;4920;49.594;11.022;2023-04-28T10:51:29;13.10;;;8.43;;
9761;SDS011;4920;49.594;11.022;2023-04-28T10:54:17;9.55;;;8.55;;
9761;SDS011;4920;49.594;11.022;2023-04-28T10:59:46;9.30;;;7.68;;
9761;SDS011;4920;49.594;11.022;2023-04-28T11:02:35;8.23;;;7.43;;
9761;SDS011;4920;49.594;11.022;2023-04-28T11:05:17;8.10;;;7.22;;
9761;SDS011;4920;49.594;11.022;2023-04-28T11:13:46;10.32;;;7.63;;
9761;SDS011;4920;49.594;11.022;2023-04-28T11:16:18;9.35;;;8.13;;
9761;SDS011;4920;49.594;11.022;2023-04-28T11:18:49;10.95;;;7.20;;
9761;SDS011;4920;49.594;11.022;2023-04-28T11:21:22;8.60;;;7.50;;
9761;SDS011;4920;49.594;11.022;2023-04-28T11:23:53;7.95;;;6.82;;
9761;SDS011;4920;49.594;11.022;2023-04-28T11:26:23;8.02;;;7.20;;
9761;SDS011;4920;49.594;11.022;2023-04-28T11:28:52;8.38;;;7.45;;
9761;SDS011;4920;49.594;11.022;2023-04-28T11:31:24;9.23;;;7.57;;
9761;SDS011;4920;49.594;11.022;2023-04-28T11:33:56;11.32;;;7.03;;
9761;SDS011;4920;49.594;11.022;2023-04-28T11:36:30;9.50;;;7.30;;
9761;SDS011;4920;49.594;11.022;2023-04-28T11:39:07;18.17;;;8.20;;
9761;SDS011;4920;49.594;11.022;2023-04-28T11:41:37;8.90;;;7.45;;
9761;SDS011;4920;49.594;11.022;2023-04-28T11:44:11;9.18;;;7.32;;
9761;SDS011;4920;49.594;11.022;2023-04-28T11:46:45;16.60;;;7.72;;
9761;SDS011;4920;49.594;11.022;2023-04-28T11:49:17;11.18;;;7.68;;
9761;SDS011;4920;49.594;11.022;2023-04-28T11:51:47;8.00;;;7.20;;
9761;SDS011;4920;49.594;11.022;2023-04-28T11:54:19;10.93;;;7.50;;
9761;SDS011;4920;49.594;11.022;2023-04-28T11:56:49;9.90;;;7.22;;
9761;SDS011;4920;49.594;11.022;2023-04-28T11:59:22;9.45;;;6.85;;
9761;SDS011;4920;49.594;11.022;2023-04-28T12:01:54;10.82;;;8.10;;
9761;SDS011;4920;49.594;11.022;2023-04-28T12:04:26;9.38;;;7.75;;
9761;SDS011;4920;49.594;11.022;2023-04-28T12:07:00;8.20;;;7.40;;
9761;SDS011;4920;49.594;11.022;2023-04-28T12:09:29;9.45;;;7.35;;
9761;SDS011;4920;49.594;11.022;2023-04-28T12:11:59;10.63;;;7.50;;
9761;SDS011;4920;49.594;11.022;2023-04-28T12:14:30;8.10;;;7.30;;
9761;SDS011;4920;49.594;11.022;2023-04-28T12:17:07;9.27;;;7.18;;
9761;SDS011;4920;49.594;11.022;2023-04-28T12:19:49;9.13;;;7.32;;
9761;SDS011;4920;49.594;11.022;2023-04-28T12:22:18;9.45;;;7.07;;
9761;SDS011;4920;49.594;11.022;2023-04-28T12:25:01;8.65;;;7.50;;
9761;SDS011;4920;49.594;11.022;2023-04-28T12:27:32;13.80;;;8.02;;
9761;SDS011;4920;49.594;11.022;2023-04-28T12:30:14;21.10;;;8.68;;
9761;SDS011;4920;49.594;11.022;2023-04-28T12:32:53;10.40;;;7.30;;
9761;SDS011;4920;49.594;11.022;2023-04-28T12:35:23;9.90;;;6.97;;
9761;SDS011;4920;49.594;11.022;2023-04-28T12:37:53;7.32;;;6.63;;
9761;SDS011;4920;49.594;11.022;2023-04-28T12:40:22;15.52;;;6.80;;
9761;SDS011;4920;49.594;11.022;2023-04-28T12:42:51;10.90;;;7.30;;
9761;SDS011;4920;49.594;11.022;2023-04-28T12:45:20;8.07;;;6.25;;
9761;SDS011;4920;49.594;11.022;2023-04-28T12:47:49;10.75;;;6.72;;
9761;SDS011;4920;49.594;11.022;2023-04-28T12:50:19;7.00;;;6.30;;
9761;SDS011;4920;49.594;11.022;2023-04-28T12:52:48;8.27;;;6.80;;
9761;SDS011;4920;49.594;11.022;2023-04-28T12:55:16;7.28;;;6.32;;
9761;SDS011;4920;49.594;11.022;2023-04-28T12:57:45;9.40;;;6.43;;
9761;SDS011;4920;49.594;11.022;2023-04-28T13:00:14;8.32;;;7.45;;
9761;SDS011;4920;49.594;11.022;2023-04-28T13:02:46;8.07;;;6.85;;
9761;SDS011;4920;49.594;11.022;2023-04-28T13:05:16;11.27;;;7.18;;
9761;SDS011;4920;49.594;11.022;2023-04-28T13:07:46;8.40;;;6.93;;
9761;SDS011;4920;49.594;11.022;2023-04-28T13:10:16;7.97;;;7.07;;
9761;SDS011;4920;49.594;11.022;2023-04-28T13:12:47;7.72;;;7.00;;
9761;SDS011;4920;49.594;11.022;2023-04-28T13:15:15;10.10;;;7.55;;
9761;SDS011;4920;49.594;11.022;2023-04-28T13:17:44;8.00;;;7.15;;
9761;SDS011;4920;49.594;11.022;2023-04-28T13:20:14;7.72;;;7.03;;
9761;SDS011;4920;49.594;11.022;2023-04-28T13:22:43;9.18;;;7.13;;
9761;SDS011;4920;49.594;11.022;2023-04-28T13:25:13;7.35;;;6.65;;
9761;SDS011;4920;49.594;11.022;2023-04-28T13:27:42;7.45;;;6.72;;
9761;SDS011;4920;49.594;11.022;2023-04-28T13:30:12;7.28;;;6.57;;
9761;SDS011;4920;49.594;11.022;2023-04-28T13:32:40;7.25;;;6.65;;
9761;SDS011;4920;49.594;11.022;2023-04-28T13:35:09;8.48;;;7.07;;
9761;SDS011;4920;49.594;11.022;2023-04-28T13:37:38;10.45;;;7.13;;
9761;SDS011;4920;49.594;11.022;2023-04-28T13:40:11;7.43;;;6.65;;
9761;SDS011;4920;49.594;11.022;2023-04-28T13:42:42;10.13;;;6.63;;
9761;SDS011;4920;49.594;11.022;2023-04-28T13:45:12;9.40;;;6.75;;
9761;SDS011;4920;49.594;11.022;2023-04-28T13:47:43;10.55;;;7.50;;
9761;SDS011;4920;49.594;11.022;2023-04-28T13:50:12;7.63;;;6.85;;
9761;SDS011;4920;49.594;11.022;2023-04-28T13:52:41;8.93;;;6.22;;
9761;SDS011;4920;49.594;11.022;2023-04-28T13:55:10;8.10;;;6.57;;
9761;SDS011;4920;49.594;11.022;2023-04-28T13:57:40;10.57;;;6.50;;
9761;SDS011;4920;49.594;11.022;2023-04-28T14:00:09;8.25;;;6.03;;
9761;SDS011;4920;49.594;11.022;2023-04-28T14:02:39;10.80;;;6.90;;
9761;SDS011;4920;49.594;11.022;2023-04-28T14:05:09;8.43;;;5.75;;
9761;SDS011;4920;49.594;11.022;2023-04-28T14:07:38;7.15;;;6.45;;
9761;SDS011;4920;49.594;11.022;2023-04-28T14:10:07;7.50;;;5.75;;
9761;SDS011;4920;49.594;11.022;2023-04-28T14:22:14;9.65;;;6.10;;
9761;SDS011;4920;49.594;11.022;2023-04-28T14:24:43;6.53;;;5.90;;
9761;SDS011;4920;49.594;11.022;2023-04-28T14:27:12;9.73;;;5.88;;
9761;SDS011;4920;49.594;11.022;2023-04-28T14:29:43;9.35;;;5.45;;
9761;SDS011;4920;49.594;11.022;2023-04-28T14:32:17;7.03;;;6.28;;
9761;SDS011;4920;49.594;11.022;2023-04-28T14:34:47;6.78;;;5.50;;
9761;SDS011;4920;49.594;11.022;2023-04-28T14:37:16;6.28;;;5.00;;
9761;SDS011;4920;49.594;11.022;2023-04-28T14:39:45;6.35;;;5.20;;
9761;SDS011;4920;49.594;11.022;2023-04-28T14:42:17;6.65;;;5.53;;
9761;SDS011;4920;49.594;11.022;2023-04-28T14:44:48;6.32;;;5.03;;
9761;SDS011;4920;49.594;11.022;2023-04-28T14:47:20;6.22;;;5.47;;
9761;SDS011;4920;49.594;11.022;2023-04-28T14:49:48;5.80;;;5.20;;
9761;SDS011;4920;49.594;11.022;2023-04-28T14:52:22;5.80;;;5.22;;
9761;SDS011;4920;49.594;11.022;2023-04-28T14:54:53;6.05;;;5.45;;
9761;SDS011;4920;49.594;11.022;2023-04-28T14:57:23;6.47;;;5.60;;
9761;SDS011;4920;49.594;11.022;2023-04-28T14:59:54;5.65;;;5.05;;
9761;SDS011;4920;49.594;11.022;2023-04-28T15:05:22;7.38;;;5.53;;
9761;SDS011;4920;49.594;11.022;2023-04-28T15:08:10;6.85;;;5.38;;
9761;SDS011;4920;49.594;11.022;2023-04-28T15:10:45;6.03;;;5.45;;
9761;SDS011;4920;49.594;11.022;2023-04-28T15:13:34;6.43;;;5.28;;
9761;SDS011;4920;49.594;11.022;2023-04-28T15:16:10;9.27;;;6.10;;
9761;SDS011;4920;49.594;11.022;2023-04-28T15:18:39;9.32;;;5.10;;
9761;SDS011;4920;49.594;11.022;2023-04-28T15:21:08;6.30;;;5.70;;
9761;SDS011;4920;49.594;11.022;2023-04-28T15:23:37;7.85;;;5.32;;
9761;SDS011;4920;49.594;11.022;2023-04-28T15:26:08;5.70;;;5.22;;
9761;SDS011;4920;49.594;11.022;2023-04-28T15:28:37;7.53;;;5.60;;
9761;SDS011;4920;49.594;11.022;2023-04-28T15:31:06;7.70;;;6.80;;
9761;SDS011;4920;49.594;11.022;2023-04-28T15:33:36;9.25;;;5.88;;
9761;SDS011;4920;49.594;11.022;2023-04-28T15:36:05;6.95;;;5.65;;
9761;SDS011;4920;49.594;11.022;2023-04-28T15:38:35;6.82;;;6.15;;
9761;SDS011;4920;49.594;11.022;2023-04-28T15:41:04;8.95;;;6.07;;
9761;SDS011;4920;49.594;11.022;2023-04-28T15:43:32;5.90;;;5.30;;
9761;SDS011;4920;49.594;11.022;2023-04-28T15:46:01;7.60;;;6.10;;
9761;SDS011;4920;49.594;11.022;2023-04-28T15:48:30;6.18;;;5.57;;